createdAt,value
2023-02-24T00:00:03.821Z,622.74
2023-02-24T00:01:03.838Z,622.74
2023-02-24T00:02:03.890Z,622.74
2023-02-24T00:03:03.882Z,622.74
2023-02-24T00:04:03.792Z,622.76
2023-02-24T00:05:03.791Z,622.75
2023-02-24T00:06:03.764Z,622.74
2023-02-24T00:07:03.756Z,622.73
2023-02-24T00:08:03.749Z,622.74
2023-02-24T00:09:03.739Z,622.71
2023-02-24T00:10:03.709Z,622.73
2023-02-24T00:11:03.711Z,622.73
2023-02-24T00:12:03.710Z,622.73
2023-02-24T00:13:03.696Z,622.72
2023-02-24T00:14:03.701Z,622.71
2023-02-24T00:15:03.678Z,622.72
2023-02-24T00:16:03.762Z,622.69
2023-02-24T00:17:03.743Z,622.71
2023-02-24T00:18:03.628Z,622.72
2023-02-24T00:19:03.634Z,622.71
2023-02-24T00:20:03.618Z,622.74
2023-02-24T00:21:03.616Z,622.73
2023-02-24T00:22:03.600Z,622.75
2023-02-24T00:23:03.586Z,622.73
2023-02-24T00:24:03.568Z,622.74
2023-02-24T00:25:03.547Z,622.75
2023-02-24T00:26:03.533Z,622.76
2023-02-24T00:27:03.527Z,622.75
2023-02-24T00:28:03.524Z,622.74
2023-02-24T00:29:03.526Z,622.75
2023-02-24T00:30:03.493Z,622.73
2023-02-24T00:31:03.657Z,622.72
2023-02-24T00:32:03.722Z,622.72
2023-02-24T00:33:03.655Z,622.73
2023-02-24T00:34:03.489Z,622.74
2023-02-24T00:35:03.486Z,622.77
2023-02-24T00:36:03.469Z,622.76
2023-02-24T00:37:03.476Z,622.75
2023-02-24T00:38:03.434Z,622.73
2023-02-24T00:39:03.402Z,622.71
2023-02-24T00:40:03.396Z,622.73
2023-02-24T00:41:03.395Z,622.76
2023-02-24T00:42:03.402Z,622.76
2023-02-24T00:43:03.380Z,622.77
2023-02-24T00:44:03.354Z,622.74
2023-02-24T00:45:03.355Z,622.76
2023-02-24T00:46:03.407Z,622.76
2023-02-24T00:47:03.326Z,622.77
2023-02-24T00:48:03.328Z,622.77
2023-02-24T00:49:03.313Z,622.73
2023-02-24T00:50:03.285Z,622.76
2023-02-24T00:51:03.285Z,622.76
2023-02-24T00:52:03.274Z,622.76
2023-02-24T00:53:03.278Z,622.77
2023-02-24T00:54:03.273Z,622.76
2023-02-24T00:55:03.271Z,622.78
2023-02-24T00:56:03.250Z,622.78
2023-02-24T00:57:03.509Z,622.77
2023-02-24T00:58:03.202Z,622.77
2023-02-24T00:59:03.200Z,622.81
2023-02-24T01:00:03.211Z,622.84
2023-02-24T01:01:10.284Z,622.81
2023-02-24T01:02:03.274Z,622.83
2023-02-24T01:03:03.143Z,622.84
2023-02-24T01:04:03.221Z,622.84
2023-02-24T01:05:03.142Z,622.82
2023-02-24T01:06:03.122Z,622.83
2023-02-24T01:07:03.112Z,622.82
2023-02-24T01:08:03.109Z,622.78
2023-02-24T01:09:03.107Z,622.80
2023-02-24T01:10:03.101Z,622.80
2023-02-24T01:11:03.065Z,622.82
2023-02-24T01:12:03.115Z,622.82
2023-02-24T01:13:03.058Z,622.83
2023-02-24T01:14:03.027Z,622.83
2023-02-24T01:15:03.030Z,622.80
2023-02-24T01:16:03.049Z,622.81
2023-02-24T01:17:03.011Z,622.81
2023-02-24T01:18:02.986Z,622.83
2023-02-24T01:19:02.995Z,622.85
2023-02-24T01:20:02.976Z,622.82
2023-02-24T01:21:02.949Z,622.85
2023-02-24T01:22:02.944Z,622.83
2023-02-24T01:23:02.938Z,622.87
2023-02-24T01:24:02.917Z,622.90
2023-02-24T01:25:02.921Z,622.89
2023-02-24T01:26:02.915Z,622.87
2023-02-24T01:27:02.915Z,622.86
2023-02-24T01:28:02.894Z,622.85
2023-02-24T01:29:02.881Z,622.86
2023-02-24T01:30:02.856Z,622.86
2023-02-24T01:31:03.001Z,622.86
2023-02-24T01:32:03.081Z,622.87
2023-02-24T01:33:03.150Z,622.90
2023-02-24T01:34:02.819Z,622.89
2023-02-24T01:35:02.806Z,622.88
2023-02-24T01:36:02.794Z,622.90
2023-02-24T01:37:02.810Z,622.89
2023-02-24T01:38:02.770Z,622.95
2023-02-24T01:39:02.788Z,622.94
2023-02-24T01:40:02.747Z,622.94
2023-02-24T01:41:02.753Z,622.93
2023-02-24T01:42:02.735Z,622.93
2023-02-24T01:43:02.713Z,622.93
2023-02-24T01:44:02.718Z,622.98
2023-02-24T01:45:02.695Z,622.99
2023-02-24T01:46:02.701Z,623.00
2023-02-24T01:47:02.671Z,623.02
2023-02-24T01:48:02.674Z,623.04
2023-02-24T01:49:02.674Z,623.02
2023-02-24T01:50:02.668Z,622.99
2023-02-24T01:51:02.641Z,622.99
2023-02-24T01:52:02.637Z,622.99
2023-02-24T01:53:02.609Z,622.99
2023-02-24T01:54:02.601Z,622.98
2023-02-24T01:55:02.596Z,622.98
2023-02-24T01:56:02.592Z,622.97
2023-02-24T01:57:02.584Z,622.97
2023-02-24T01:58:02.593Z,623.01
2023-02-24T01:59:02.552Z,622.99
2023-02-24T02:00:02.550Z,623.00
2023-02-24T02:01:02.555Z,623.02
2023-02-24T02:02:02.618Z,623.02
2023-02-24T02:03:02.532Z,623.01
2023-02-24T02:04:02.500Z,623.02
2023-02-24T02:05:02.476Z,623.03
2023-02-24T02:06:02.481Z,623.05
2023-02-24T02:07:02.459Z,623.03
2023-02-24T02:08:02.468Z,623.04
2023-02-24T02:09:02.444Z,623.04
2023-02-24T02:10:02.442Z,623.04
2023-02-24T02:11:02.445Z,623.06
2023-02-24T02:12:02.404Z,623.05
2023-02-24T02:13:02.413Z,623.04
2023-02-24T02:14:02.429Z,623.04
2023-02-24T02:15:02.400Z,623.03
2023-02-24T02:16:02.428Z,623.04
2023-02-24T02:17:02.357Z,623.03
2023-02-24T02:18:02.362Z,623.02
2023-02-24T02:19:02.330Z,623.03
2023-02-24T02:20:02.346Z,622.99
2023-02-24T02:21:02.315Z,623.01
2023-02-24T02:22:02.313Z,623.02
2023-02-24T02:23:02.293Z,623.05
2023-02-24T02:24:02.284Z,623.05
2023-02-24T02:25:02.271Z,623.06
2023-02-24T02:26:02.546Z,623.05
2023-02-24T02:27:02.243Z,623.06
2023-02-24T02:28:02.232Z,623.07
2023-02-24T02:29:02.249Z,623.09
2023-02-24T02:30:02.232Z,623.09
2023-02-24T02:31:02.445Z,623.09
2023-02-24T02:32:02.393Z,623.09
2023-02-24T02:33:02.258Z,623.09
2023-02-24T02:34:02.169Z,623.09
2023-02-24T02:35:02.155Z,623.09
2023-02-24T02:36:02.156Z,623.08
2023-02-24T02:37:02.149Z,623.08
2023-02-24T02:38:02.130Z,623.08
2023-02-24T02:39:02.126Z,623.08
2023-02-24T02:40:02.123Z,623.10
2023-02-24T02:41:02.098Z,623.11
2023-02-24T02:42:02.174Z,623.12
2023-02-24T02:43:02.081Z,623.11
2023-02-24T02:44:02.072Z,623.11
2023-02-24T02:45:02.064Z,623.11
2023-02-24T02:46:02.100Z,623.11
2023-02-24T02:47:02.038Z,623.12
2023-02-24T02:48:02.034Z,623.09
2023-02-24T02:49:02.006Z,623.09
2023-02-24T02:50:02.030Z,623.09
2023-02-24T02:51:02.001Z,623.11
2023-02-24T02:52:01.990Z,623.10
2023-02-24T02:53:01.960Z,623.10
2023-02-24T02:54:01.961Z,623.12
2023-02-24T02:55:01.947Z,623.12
2023-02-24T02:56:01.947Z,623.12
2023-02-24T02:57:01.988Z,623.13
2023-02-24T02:58:01.915Z,623.14
2023-02-24T02:59:01.910Z,623.20
2023-02-24T03:00:01.913Z,623.19
2023-02-24T03:01:02.026Z,623.16
2023-02-24T03:02:09.369Z,623.15
2023-02-24T03:03:01.854Z,623.15
2023-02-24T03:04:01.857Z,623.15
2023-02-24T03:05:01.931Z,623.18
2023-02-24T03:06:01.828Z,623.13
2023-02-24T03:07:01.799Z,623.13
2023-02-24T03:08:01.807Z,623.12
2023-02-24T03:09:01.782Z,623.13
2023-02-24T03:10:01.823Z,623.13
2023-02-24T03:11:01.766Z,623.15
2023-02-24T03:12:01.757Z,623.15
2023-02-24T03:13:01.742Z,623.16
2023-02-24T03:14:01.761Z,623.24
2023-02-24T03:15:01.724Z,623.21
2023-02-24T03:16:01.711Z,623.21
2023-02-24T03:17:01.721Z,623.27
2023-02-24T03:18:01.697Z,623.30
2023-02-24T03:19:01.676Z,623.30
2023-02-24T03:20:01.664Z,623.28
2023-02-24T03:21:01.651Z,623.21
2023-02-24T03:22:01.660Z,623.24
2023-02-24T03:23:01.652Z,623.17
2023-02-24T03:24:01.624Z,623.13
2023-02-24T03:25:01.618Z,623.13
2023-02-24T03:26:01.610Z,623.13
2023-02-24T03:27:01.585Z,623.13
2023-02-24T03:28:01.612Z,623.18
2023-02-24T03:29:01.578Z,623.25
2023-02-24T03:30:01.584Z,623.28
2023-02-24T03:31:01.614Z,623.27
2023-02-24T03:32:01.679Z,623.28
2023-02-24T03:33:01.558Z,623.29
2023-02-24T03:34:01.520Z,623.35
2023-02-24T03:35:01.515Z,623.32
2023-02-24T03:36:01.503Z,623.36
2023-02-24T03:37:01.497Z,623.30
2023-02-24T03:38:01.518Z,623.34
2023-02-24T03:39:01.462Z,623.35
2023-02-24T03:40:01.462Z,623.34
2023-02-24T03:41:01.460Z,623.32
2023-02-24T03:42:01.449Z,623.39
2023-02-24T03:43:01.416Z,623.39
2023-02-24T03:44:01.409Z,623.55
2023-02-24T03:45:01.436Z,623.62
2023-02-24T03:46:01.474Z,623.56
2023-02-24T03:47:01.384Z,623.53
2023-02-24T03:48:01.368Z,623.54
2023-02-24T03:49:01.372Z,623.49
2023-02-24T03:50:01.357Z,623.44
2023-02-24T03:51:01.340Z,623.43
2023-02-24T03:52:01.328Z,623.40
2023-02-24T03:53:01.320Z,623.37
2023-02-24T03:54:01.302Z,623.40
2023-02-24T03:55:01.572Z,623.46
2023-02-24T03:56:01.279Z,623.46
2023-02-24T03:57:01.281Z,623.50
2023-02-24T03:58:01.263Z,623.56
2023-02-24T03:59:01.262Z,623.48
2023-02-24T04:00:01.307Z,623.42
2023-02-24T04:01:01.225Z,623.52
2023-02-24T04:02:01.251Z,623.49
2023-02-24T04:03:01.197Z,623.47
2023-02-24T04:04:01.220Z,623.46
2023-02-24T04:05:01.241Z,623.50
2023-02-24T04:06:01.175Z,623.59
2023-02-24T04:07:01.164Z,623.59
2023-02-24T04:08:01.148Z,623.57
2023-02-24T04:09:01.136Z,623.50
2023-02-24T04:10:01.137Z,623.42
2023-02-24T04:11:01.127Z,623.42
2023-02-24T04:12:01.140Z,623.42
2023-02-24T04:13:01.098Z,623.50
2023-02-24T04:14:01.096Z,623.48
2023-02-24T04:15:01.090Z,623.55
2023-02-24T04:16:01.129Z,623.63
2023-02-24T04:17:01.206Z,623.64
2023-02-24T04:18:01.040Z,623.66
2023-02-24T04:19:01.032Z,623.68
2023-02-24T04:20:01.086Z,623.66
2023-02-24T04:21:01.052Z,623.56
2023-02-24T04:22:01.010Z,623.59
2023-02-24T04:23:01.026Z,623.71
2023-02-24T04:24:00.977Z,623.80
2023-02-24T04:25:00.972Z,623.90
2023-02-24T04:26:00.971Z,623.83
2023-02-24T04:27:00.948Z,623.82
2023-02-24T04:28:00.941Z,623.82
2023-02-24T04:29:00.934Z,623.80
2023-02-24T04:30:00.932Z,623.72
2023-02-24T04:31:01.051Z,623.73
2023-02-24T04:32:01.224Z,623.68
2023-02-24T04:33:00.895Z,623.81
2023-02-24T04:34:00.875Z,623.67
2023-02-24T04:35:00.867Z,623.58
2023-02-24T04:36:00.869Z,623.56
2023-02-24T04:37:00.852Z,623.53
2023-02-24T04:38:00.830Z,623.52
2023-02-24T04:39:00.823Z,623.62
2023-02-24T04:40:00.817Z,623.74
2023-02-24T04:41:00.793Z,623.80
2023-02-24T04:42:00.786Z,623.88
2023-02-24T04:43:00.784Z,623.81
2023-02-24T04:44:00.777Z,623.85
2023-02-24T04:45:00.761Z,623.72
2023-02-24T04:46:00.800Z,623.58
2023-02-24T04:47:00.784Z,623.52
2023-02-24T04:48:00.752Z,623.64
2023-02-24T04:49:00.710Z,623.76
2023-02-24T04:50:00.699Z,623.90
2023-02-24T04:51:00.687Z,623.99
2023-02-24T04:52:00.672Z,623.84
2023-02-24T04:53:00.702Z,623.87
2023-02-24T04:54:00.672Z,623.92
2023-02-24T04:55:00.660Z,624.00
2023-02-24T04:56:00.630Z,624.26
2023-02-24T04:57:00.623Z,624.05
2023-02-24T04:58:00.614Z,624.13
2023-02-24T04:59:00.619Z,623.97
2023-02-24T05:00:00.591Z,623.95
2023-02-24T05:01:00.590Z,623.92
2023-02-24T05:02:00.568Z,623.77
2023-02-24T05:03:08.068Z,623.65
2023-02-24T05:04:00.622Z,623.75
2023-02-24T05:05:00.636Z,624.08
2023-02-24T05:06:00.616Z,624.01
2023-02-24T05:07:00.532Z,624.06
2023-02-24T05:08:00.506Z,624.15
2023-02-24T05:09:00.527Z,624.27
2023-02-24T05:10:00.503Z,624.49
2023-02-24T05:11:00.499Z,624.46
2023-02-24T05:12:00.528Z,624.77
2023-02-24T05:13:02.366Z,624.37
2023-02-24T05:14:00.440Z,624.51
2023-02-24T05:15:00.482Z,624.36
2023-02-24T05:16:00.433Z,624.79
2023-02-24T05:17:00.717Z,625.08
2023-02-24T05:18:00.409Z,625.31
2023-02-24T05:19:00.395Z,625.25
2023-02-24T05:20:00.376Z,624.74
2023-02-24T05:21:01.782Z,625.16
2023-02-24T05:22:00.389Z,624.83
2023-02-24T05:23:00.366Z,624.62
2023-02-24T05:24:00.604Z,624.50
2023-02-24T05:25:00.357Z,624.58
2023-02-24T05:26:00.336Z,624.31
2023-02-24T05:27:00.324Z,624.08
2023-02-24T05:28:00.293Z,624.07
2023-02-24T05:29:00.296Z,624.06
2023-02-24T05:30:00.287Z,624.14
2023-02-24T05:31:00.381Z,624.36
2023-02-24T05:32:00.455Z,625.01
2023-02-24T05:33:00.260Z,625.24
2023-02-24T05:34:00.226Z,625.79
2023-02-24T05:35:00.221Z,626.09
2023-02-24T05:36:00.215Z,625.23
2023-02-24T05:37:00.208Z,624.70
2023-02-24T05:38:00.204Z,624.81
2023-02-24T05:39:00.172Z,624.50
2023-02-24T05:40:00.187Z,624.79
2023-02-24T05:41:00.188Z,624.88
2023-02-24T05:42:00.153Z,625.35
2023-02-24T05:43:00.155Z,625.57
2023-02-24T05:44:00.132Z,624.66
2023-02-24T05:45:00.123Z,625.16
2023-02-24T05:46:00.128Z,624.93
2023-02-24T05:47:00.163Z,624.57
2023-02-24T05:48:00.104Z,624.39
2023-02-24T05:49:00.108Z,624.35
2023-02-24T05:50:00.073Z,624.09
2023-02-24T05:51:00.064Z,624.07
2023-02-24T05:52:00.046Z,624.01
2023-02-24T05:53:00.018Z,624.01
2023-02-24T05:54:00.023Z,624.25
2023-02-24T05:55:00.008Z,624.94
2023-02-24T05:55:59.999Z,625.43
2023-02-24T05:57:00.003Z,625.50
2023-02-24T05:57:59.971Z,625.54
2023-02-24T05:58:59.971Z,626.63
2023-02-24T05:59:59.965Z,627.54
2023-02-24T06:00:59.933Z,627.09
2023-02-24T06:02:00.014Z,627.84
2023-02-24T06:02:59.974Z,628.32
2023-02-24T06:03:59.900Z,627.53
2023-02-24T06:04:59.928Z,626.38
2023-02-24T06:05:59.888Z,627.03
2023-02-24T06:06:59.901Z,627.32
2023-02-24T06:07:59.887Z,627.47
2023-02-24T06:08:59.880Z,628.37
2023-02-24T06:09:59.852Z,629.16
2023-02-24T06:10:59.827Z,627.23
2023-02-24T06:11:59.894Z,627.35
2023-02-24T06:12:59.835Z,628.33
2023-02-24T06:13:59.816Z,629.11
2023-02-24T06:14:59.781Z,626.01
2023-02-24T06:15:59.804Z,626.16
2023-02-24T06:16:59.760Z,626.65
2023-02-24T06:17:59.760Z,628.67
2023-02-24T06:18:59.779Z,628.13
2023-02-24T06:19:59.739Z,627.07
2023-02-24T06:20:59.724Z,626.78
2023-02-24T06:21:59.705Z,626.33
2023-02-24T06:22:59.715Z,630.95
2023-02-24T06:23:59.684Z,632.50
2023-02-24T06:24:59.697Z,628.34
2023-02-24T06:25:59.695Z,630.37
2023-02-24T06:26:59.653Z,630.04
2023-02-24T06:27:59.653Z,626.64
2023-02-24T06:28:59.660Z,625.60
2023-02-24T06:29:59.633Z,625.74
2023-02-24T06:30:59.669Z,625.62
2023-02-24T06:31:59.868Z,626.44
2023-02-24T06:32:59.661Z,627.32
2023-02-24T06:33:59.648Z,627.06
2023-02-24T06:34:59.592Z,630.35
2023-02-24T06:35:59.607Z,628.71
2023-02-24T06:36:59.574Z,633.64
2023-02-24T06:37:59.581Z,660.26
2023-02-24T06:38:59.536Z,641.75
2023-02-24T06:39:59.667Z,634.30
2023-02-24T06:41:00.587Z,627.87
2023-02-24T06:41:59.538Z,627.69
2023-02-24T06:42:59.562Z,626.46
2023-02-24T06:43:59.489Z,628.14
2023-02-24T06:44:59.484Z,629.76
2023-02-24T06:45:59.576Z,628.54
2023-02-24T06:46:59.469Z,631.05
2023-02-24T06:47:59.488Z,630.48
2023-02-24T06:48:59.463Z,626.59
2023-02-24T06:49:59.425Z,625.71
2023-02-24T06:50:59.443Z,625.55
2023-02-24T06:51:59.386Z,629.82
2023-02-24T06:53:00.149Z,631.87
2023-02-24T06:53:59.605Z,682.77
2023-02-24T06:54:59.377Z,641.60
2023-02-24T06:55:59.347Z,642.54
2023-02-24T06:56:59.372Z,638.37
2023-02-24T06:57:59.372Z,633.39
2023-02-24T06:58:59.329Z,633.55
2023-02-24T06:59:59.374Z,628.79
2023-02-24T07:00:59.390Z,627.77
2023-02-24T07:01:59.293Z,626.88
2023-02-24T07:02:59.307Z,626.91
2023-02-24T07:04:07.297Z,626.97
2023-02-24T07:04:59.313Z,626.16
2023-02-24T07:05:59.240Z,627.16
2023-02-24T07:06:59.366Z,629.10
2023-02-24T07:07:59.356Z,629.25
2023-02-24T07:08:59.235Z,634.21
2023-02-24T07:09:59.210Z,633.93
2023-02-24T07:10:59.207Z,628.96
2023-02-24T07:11:59.199Z,627.13
2023-02-24T07:12:59.202Z,626.75
2023-02-24T07:13:59.167Z,626.24
2023-02-24T07:14:59.427Z,627.29
2023-02-24T07:15:59.131Z,627.76
2023-02-24T07:16:59.261Z,628.53
2023-02-24T07:17:59.118Z,631.32
2023-02-24T07:18:59.110Z,633.78
2023-02-24T07:19:59.123Z,630.56
2023-02-24T07:20:59.076Z,634.72
2023-02-24T07:21:59.117Z,639.70
2023-02-24T07:22:59.218Z,641.07
2023-02-24T07:23:59.626Z,629.47
2023-02-24T07:24:59.082Z,627.04
2023-02-24T07:25:59.040Z,628.77
2023-02-24T07:26:59.029Z,629.74
2023-02-24T07:27:59.026Z,634.95
2023-02-24T07:28:58.993Z,659.71
2023-02-24T07:29:58.976Z,664.39
2023-02-24T07:30:59.080Z,641.55
2023-02-24T07:31:59.144Z,634.88
2023-02-24T07:32:58.983Z,634.74
2023-02-24T07:33:58.950Z,629.73
2023-02-24T07:34:58.929Z,659.61
2023-02-24T07:35:58.959Z,638.93
2023-02-24T07:36:58.913Z,631.51
2023-02-24T07:37:58.896Z,632.76
2023-02-24T07:38:58.907Z,631.40
2023-02-24T07:39:58.884Z,633.80
2023-02-24T07:40:58.888Z,628.60
2023-02-24T07:41:58.857Z,632.48
2023-02-24T07:42:58.888Z,630.18
2023-02-24T07:43:58.868Z,646.00
2023-02-24T07:44:58.938Z,632.37
2023-02-24T07:45:58.928Z,628.06
2023-02-24T07:46:59.607Z,626.51
2023-02-24T07:48:01.117Z,628.02
2023-02-24T07:48:58.795Z,644.37
2023-02-24T07:49:58.799Z,665.61
2023-02-24T07:50:58.765Z,645.57
2023-02-24T07:51:58.794Z,630.68
2023-02-24T07:52:58.768Z,628.54
2023-02-24T07:53:58.719Z,634.22
2023-02-24T07:54:58.868Z,650.83
2023-02-24T07:55:58.708Z,636.64
2023-02-24T07:56:58.706Z,630.95
2023-02-24T07:57:58.682Z,626.87
2023-02-24T07:58:58.677Z,626.45
2023-02-24T07:59:58.678Z,626.86
2023-02-24T08:00:58.686Z,627.17
2023-02-24T08:01:58.664Z,626.15
2023-02-24T08:02:58.640Z,626.33
2023-02-24T08:03:58.609Z,632.45
2023-02-24T08:04:58.631Z,722.26
2023-02-24T08:05:58.584Z,691.68
2023-02-24T08:06:58.656Z,709.80
2023-02-24T08:07:58.598Z,704.75
2023-02-24T08:08:58.626Z,743.84
2023-02-24T08:09:58.559Z,786.33
2023-02-24T08:10:58.586Z,759.67
2023-02-24T08:11:58.530Z,702.73
2023-02-24T08:12:58.527Z,633.66
2023-02-24T08:13:58.523Z,635.06
2023-02-24T08:14:58.509Z,632.35
2023-02-24T08:15:58.546Z,638.25
2023-02-24T08:16:58.470Z,633.63
2023-02-24T08:17:58.466Z,640.38
2023-02-24T08:18:58.488Z,680.39
2023-02-24T08:19:58.443Z,665.09
2023-02-24T08:20:58.469Z,634.09
2023-02-24T08:21:58.658Z,629.70
2023-02-24T08:22:58.449Z,627.39
2023-02-24T08:23:58.427Z,627.53
2023-02-24T08:24:58.424Z,640.93
2023-02-24T08:25:58.401Z,630.32
2023-02-24T08:26:58.364Z,627.83
2023-02-24T08:28:08.443Z,626.98
2023-02-24T08:28:59.343Z,637.46
2023-02-24T08:29:58.464Z,639.52
2023-02-24T08:30:58.449Z,633.81
2023-02-24T08:31:58.497Z,651.15
2023-02-24T08:32:58.388Z,696.69
2023-02-24T08:33:58.284Z,743.74
2023-02-24T08:34:58.315Z,680.55
2023-02-24T08:35:58.290Z,628.39
2023-02-24T08:36:58.317Z,626.98
2023-02-24T08:37:58.254Z,627.98
2023-02-24T08:38:58.450Z,631.71
2023-02-24T08:39:58.256Z,636.02
2023-02-24T08:40:58.258Z,646.68
2023-02-24T08:41:58.215Z,632.23
2023-02-24T08:42:58.236Z,651.89
2023-02-24T08:43:58.283Z,630.65
2023-02-24T08:44:58.272Z,627.62
2023-02-24T08:45:58.698Z,632.24
2023-02-24T08:46:58.579Z,630.35
2023-02-24T08:47:58.161Z,628.27
2023-02-24T08:48:58.147Z,627.25
2023-02-24T08:49:58.281Z,631.74
2023-02-24T08:50:58.120Z,633.14
2023-02-24T08:51:58.093Z,629.85
2023-02-24T08:52:58.690Z,630.32
2023-02-24T08:53:58.095Z,627.18
2023-02-24T08:54:58.080Z,626.32
2023-02-24T08:55:58.056Z,626.12
2023-02-24T08:56:58.051Z,627.82
2023-02-24T08:57:58.044Z,626.54
2023-02-24T08:58:58.254Z,626.56
2023-02-24T08:59:58.051Z,630.26
2023-02-24T09:00:58.111Z,633.33
2023-02-24T09:02:04.780Z,725.15
2023-02-24T09:02:59.070Z,751.73
2023-02-24T09:03:57.991Z,670.29
2023-02-24T09:05:05.563Z,636.87
2023-02-24T09:05:57.953Z,634.85
2023-02-24T09:07:10.734Z,648.18
2023-02-24T09:07:57.953Z,642.18
2023-02-24T09:08:57.968Z,630.63
2023-02-24T09:09:57.923Z,629.17
2023-02-24T09:10:57.915Z,648.40
2023-02-24T09:11:57.891Z,771.51
2023-02-24T09:12:57.874Z,769.27
2023-02-24T09:13:57.883Z,770.63
2023-02-24T09:14:57.869Z,809.69
2023-02-24T09:15:57.858Z,809.16
2023-02-24T09:16:57.842Z,803.06
2023-02-24T09:17:57.836Z,807.64
2023-02-24T09:18:57.824Z,765.62
2023-02-24T09:19:57.816Z,748.29
2023-02-24T09:20:57.943Z,836.46
2023-02-24T09:21:57.778Z,878.91
2023-02-24T09:22:57.796Z,885.38
2023-02-24T09:23:57.849Z,885.66
2023-02-24T09:24:57.787Z,893.47
2023-02-24T09:25:57.760Z,888.77
2023-02-24T09:26:58.166Z,895.03
2023-02-24T09:27:57.751Z,876.98
2023-02-24T09:28:57.824Z,849.50
2023-02-24T09:29:57.726Z,824.52
2023-02-24T09:30:57.755Z,858.63
2023-02-24T09:31:57.895Z,877.72
2023-02-24T09:32:57.845Z,876.83
2023-02-24T09:33:57.750Z,846.80
2023-02-24T09:34:57.662Z,876.61
2023-02-24T09:35:57.639Z,867.02
2023-02-24T09:36:57.627Z,861.04
2023-02-24T09:37:57.613Z,822.05
2023-02-24T09:38:57.681Z,849.01
2023-02-24T09:39:57.581Z,856.87
2023-02-24T09:40:58.581Z,849.41
2023-02-24T09:41:57.585Z,836.10
2023-02-24T09:42:57.591Z,834.45
2023-02-24T09:43:57.542Z,783.08
2023-02-24T09:44:57.526Z,797.20
2023-02-24T09:45:57.709Z,806.20
2023-02-24T09:46:57.525Z,797.20
2023-02-24T09:47:57.693Z,773.54
2023-02-24T09:48:57.535Z,783.32
2023-02-24T09:49:57.483Z,722.82
2023-02-24T09:51:04.406Z,692.98
2023-02-24T09:51:58.477Z,712.50
2023-02-24T09:53:02.880Z,685.78
2023-02-24T09:53:58.449Z,701.34
2023-02-24T09:54:57.420Z,696.48
2023-02-24T09:55:57.431Z,701.59
2023-02-24T09:56:57.410Z,645.41
2023-02-24T09:57:57.391Z,652.79
2023-02-24T09:58:57.398Z,643.94
2023-02-24T09:59:57.391Z,693.79
2023-02-24T10:00:57.423Z,683.94
2023-02-24T10:01:57.454Z,646.67
2023-02-24T10:02:57.334Z,630.13
2023-02-24T10:03:57.346Z,631.15
2023-02-24T10:04:57.340Z,632.44
2023-02-24T10:05:57.319Z,627.74
2023-02-24T10:06:57.286Z,627.31
2023-02-24T10:07:57.393Z,627.44
2023-02-24T10:08:57.290Z,627.66
2023-02-24T10:09:57.309Z,627.20
2023-02-24T10:10:57.271Z,625.77
2023-02-24T10:11:57.272Z,626.54
2023-02-24T10:12:57.267Z,628.07
2023-02-24T10:14:03.517Z,627.15
2023-02-24T10:15:00.424Z,630.26
2023-02-24T10:15:57.570Z,633.32
2023-02-24T10:16:57.271Z,642.36
2023-02-24T10:17:57.229Z,629.76
2023-02-24T10:18:57.204Z,634.77
2023-02-24T10:19:57.236Z,639.37
2023-02-24T10:20:57.529Z,655.80
2023-02-24T10:21:57.256Z,648.50
2023-02-24T10:22:57.132Z,630.73
2023-02-24T10:23:57.246Z,629.62
2023-02-24T10:24:57.097Z,627.02
2023-02-24T10:25:57.122Z,628.00
2023-02-24T10:27:01.240Z,631.64
2023-02-24T10:27:58.108Z,642.45
2023-02-24T10:28:57.102Z,658.75
2023-02-24T10:29:57.877Z,640.69
2023-02-24T10:30:57.104Z,635.37
2023-02-24T10:31:57.331Z,629.83
2023-02-24T10:32:57.093Z,626.72
2023-02-24T10:33:56.998Z,626.77
2023-02-24T10:34:57.001Z,626.32
2023-02-24T10:35:56.988Z,626.61
2023-02-24T10:36:56.995Z,627.53
2023-02-24T10:37:56.999Z,629.16
2023-02-24T10:38:56.941Z,627.69
2023-02-24T10:39:56.945Z,626.45
2023-02-24T10:40:57.004Z,626.33
2023-02-24T10:41:56.986Z,626.53
2023-02-24T10:42:56.911Z,627.19
2023-02-24T10:43:56.974Z,625.55
2023-02-24T10:45:01.948Z,624.87
2023-02-24T10:45:58.025Z,626.76
2023-02-24T10:46:56.857Z,627.58
2023-02-24T10:47:57.390Z,628.74
2023-02-24T10:48:56.904Z,628.45
2023-02-24T10:49:57.254Z,627.37
2023-02-24T10:50:56.831Z,627.32
2023-02-24T10:51:56.813Z,630.72
2023-02-24T10:52:56.803Z,631.19
2023-02-24T10:53:56.811Z,631.09
2023-02-24T10:54:56.831Z,629.21
2023-02-24T10:55:56.763Z,627.43
2023-02-24T10:56:56.758Z,628.87
2023-02-24T10:57:59.343Z,629.08
2023-02-24T10:58:57.057Z,627.36
2023-02-24T10:59:56.736Z,625.75
2023-02-24T11:00:56.734Z,626.03
2023-02-24T11:01:56.790Z,625.78
2023-02-24T11:02:56.744Z,625.11
2023-02-24T11:03:56.707Z,625.93
2023-02-24T11:04:56.679Z,625.74
2023-02-24T11:06:04.196Z,624.99
2023-02-24T11:06:56.658Z,626.32
2023-02-24T11:07:56.632Z,627.98
2023-02-24T11:08:56.631Z,628.09
2023-02-24T11:09:56.631Z,625.67
2023-02-24T11:10:56.624Z,625.73
2023-02-24T11:11:56.594Z,626.24
2023-02-24T11:13:04.213Z,626.90
2023-02-24T11:13:57.637Z,626.31
2023-02-24T11:14:56.555Z,627.47
2023-02-24T11:15:56.649Z,628.38
2023-02-24T11:16:56.567Z,627.65
2023-02-24T11:17:56.602Z,626.65
2023-02-24T11:18:56.640Z,625.74
2023-02-24T11:19:56.731Z,625.09
2023-02-24T11:20:56.544Z,625.05
2023-02-24T11:21:56.539Z,626.37
2023-02-24T11:22:56.636Z,626.92
2023-02-24T11:23:56.517Z,625.85
2023-02-24T11:24:56.608Z,624.98
2023-02-24T11:25:56.472Z,625.34
2023-02-24T11:47:56.543Z,622.58
2023-02-24T11:48:56.540Z,622.59
2023-02-24T11:49:56.541Z,622.71
2023-02-24T11:50:56.482Z,622.76
2023-02-24T11:51:56.532Z,622.85
2023-02-24T11:52:56.497Z,622.93
2023-02-24T11:53:56.512Z,622.99
2023-02-24T11:54:56.448Z,623.05
2023-02-24T11:55:56.467Z,623.08
2023-02-24T11:56:56.470Z,623.10
2023-02-24T11:57:56.426Z,623.16
2023-02-24T11:58:56.468Z,623.35
2023-02-24T11:59:56.406Z,623.44
2023-02-24T12:00:56.470Z,623.46
2023-02-24T12:01:56.436Z,623.50
2023-02-24T12:02:56.682Z,623.65
2023-02-24T12:03:56.630Z,623.83
2023-02-24T12:04:56.389Z,624.02
2023-02-24T12:05:56.461Z,624.20
2023-02-24T12:06:56.433Z,624.27
2023-02-24T12:07:56.303Z,624.10
2023-02-24T12:08:56.321Z,623.95
2023-02-24T12:10:03.990Z,623.92
2023-02-24T12:10:56.295Z,623.96
2023-02-24T12:11:56.405Z,624.33
2023-02-24T12:12:56.388Z,624.24
2023-02-24T12:13:56.336Z,623.99
2023-02-24T12:14:56.376Z,623.91
2023-02-24T12:15:56.546Z,623.97
2023-02-24T12:16:56.350Z,624.05
2023-02-24T12:17:56.191Z,624.01
2023-02-24T12:18:56.239Z,624.26
2023-02-24T12:19:56.338Z,624.40
2023-02-24T12:20:56.272Z,624.31
2023-02-24T12:21:56.142Z,624.31
2023-02-24T12:22:56.126Z,624.26
2023-02-24T12:23:56.176Z,624.31
2023-02-24T12:24:56.133Z,624.43
2023-02-24T12:25:56.126Z,624.25
2023-02-24T12:26:56.198Z,624.55
2023-02-24T12:27:56.079Z,624.61
2023-02-24T12:28:56.063Z,624.89
2023-02-24T12:29:56.074Z,625.01
2023-02-24T12:30:56.107Z,624.91
2023-02-24T12:31:56.218Z,624.68
2023-02-24T12:32:56.144Z,624.60
2023-02-24T12:33:56.032Z,624.36
2023-02-24T12:34:56.051Z,624.76
2023-02-24T12:35:56.008Z,624.50
2023-02-24T12:36:56.059Z,624.39
2023-02-24T12:37:56.011Z,624.41
2023-02-24T12:38:56.018Z,624.37
2023-02-24T12:39:55.976Z,624.35
2023-02-24T12:40:55.949Z,624.46
2023-02-24T12:41:55.944Z,625.11
2023-02-24T12:42:55.941Z,625.35
2023-02-24T12:43:55.899Z,624.72
2023-02-24T12:44:55.937Z,624.39
2023-02-24T12:45:55.970Z,624.38
2023-02-24T12:46:56.786Z,624.70
2023-02-24T12:47:57.247Z,625.04
2023-02-24T12:48:55.855Z,625.54